Time;durP1;ratioP1;P1;durP2;ratioP2;P2;SDS_P1;SDS_P2;PMS_P1;PMS_P2;Temp;Humidity;BMP_temperature;BMP_pressure;BME280_temperature;BME280_humidity;BME280_pressure;Samples;Min_cycle;Max_cycle;Signal;HPM_P1;HPM_P2
2022/04/05 00:02:06;;;;;;;1.17;0.45;;;;;;;14.45;79.62;100581.47;7391077;19;20517;-64
2022/04/05 00:04:32;;;;;;;1.63;0.30;;;;;;;14.45;79.31;100576.97;7393313;19;20006;-64
2022/04/05 00:07:00;;;;;;;0.93;0.40;;;;;;;14.45;78.62;100573.50;7387736;19;20010;-65
2022/04/05 00:09:27;;;;;;;1.58;0.28;;;;;;;14.45;79.41;100566.41;7392244;19;20098;-64
2022/04/05 00:11:54;;;;;;;0.98;0.30;;;;;;;14.43;78.72;100562.28;7389354;19;20019;-65
2022/04/05 00:14:21;;;;;;;4.38;1.92;;;;;;;14.43;79.16;100562.28;7390457;19;20326;-64
2022/04/05 00:16:48;;;;;;;0.98;0.40;;;;;;;14.44;79.42;100571.88;7389277;19;20479;-64
2022/04/05 00:19:22;;;;;;;1.23;0.22;;;;;;;14.42;79.09;100564.13;7389392;19;20014;-66
2022/04/05 00:21:49;;;;;;;2.47;0.73;;;;;;;14.41;79.14;100567.78;7392220;19;20360;-64
2022/04/05 00:24:16;;;;;;;0.70;0.20;;;;;;;14.37;79.43;100566.50;7388173;19;20376;-66
2022/04/05 00:26:43;;;;;;;2.65;1.90;;;;;;;14.38;79.23;100570.78;7390197;19;20014;-64
2022/04/05 00:29:12;;;;;;;0.68;0.22;;;;;;;14.37;79.21;100566.50;7390012;19;20034;-66
2022/04/05 00:31:45;;;;;;;0.88;0.20;;;;;;;14.37;78.85;100563.84;7389073;19;20018;-64
2022/04/05 00:34:13;;;;;;;3.50;1.75;;;;;;;14.38;79.33;100564.66;7388610;19;20025;-64
2022/04/05 00:36:40;;;;;;;2.30;0.20;;;;;;;14.36;79.40;100559.56;7388742;19;20476;-64
2022/04/05 00:39:07;;;;;;;0.60;0.20;;;;;;;14.37;79.08;100557.75;7388028;19;20014;-65
2022/04/05 00:41:37;;;;;;;1.02;0.30;;;;;;;14.31;79.01;100559.25;7388422;19;20314;-64
2022/04/05 00:44:04;;;;;;;0.70;0.20;;;;;;;14.33;79.46;100567.00;7388218;19;20007;-64
2022/04/05 00:46:31;;;;;;;1.00;0.20;;;;;;;14.33;78.97;100567.00;7390633;19;20125;-65
2022/04/05 00:49:01;;;;;;;1.38;0.30;;;;;;;14.32;79.03;100563.56;7390110;19;20023;-63
2022/04/05 00:51:28;;;;;;;1.23;0.20;;;;;;;14.31;79.07;100563.72;7391706;19;20017;-65
2022/04/05 00:53:59;;;;;;;0.60;0.20;;;;;;;14.31;78.82;100563.72;7386439;19;20012;-63
2022/04/05 00:56:26;;;;;;;3.58;1.08;;;;;;;14.30;79.83;100570.03;7392012;19;20011;-64
2022/04/05 00:58:58;;;;;;;1.65;0.35;;;;;;;14.29;80.20;100557.78;7387878;19;20486;-64
2022/04/05 01:01:27;;;;;;;0.60;0.20;;;;;;;14.30;79.40;100564.72;7389228;19;20021;-63
2022/04/05 01:03:55;;;;;;;1.92;0.40;;;;;;;14.27;79.80;100552.69;7388014;19;20007;-62
2022/04/05 01:06:35;;;;;;;0.45;0.15;;;;;;;14.27;79.59;100549.22;7390759;19;20034;-64
2022/04/05 01:09:02;;;;;;;1.08;0.20;;;;;;;14.24;79.33;100561.00;7387419;19;20010;-63
2022/04/05 01:11:33;;;;;;;0.60;0.15;;;;;;;14.23;79.37;100555.88;7388806;19;20107;-63
2022/04/05 01:14:04;;;;;;;1.05;0.20;;;;;;;14.22;79.71;100554.25;7385246;19;20011;-64
2022/04/05 01:16:33;;;;;;;0.65;0.10;;;;;;;14.22;79.70;100557.69;7386884;19;20495;-67
2022/04/05 01:19:00;;;;;;;0.80;0.28;;;;;;;14.18;79.83;100559.06;7387602;19;20010;-64
2022/04/05 01:21:28;;;;;;;0.80;0.20;;;;;;;14.17;79.99;100556.63;7384560;19;20742;-64
2022/04/05 01:24:14;;;;;;;0.95;0.35;;;;;;;14.14;80.45;100561.25;7386970;19;20538;-64
2022/04/05 01:26:47;;;;;;;0.90;0.20;;;;;;;14.16;80.60;100552.31;7387836;19;20326;-65
2022/04/05 01:29:16;;;;;;;1.98;0.90;;;;;;;14.14;80.69;100558.63;7385512;19;20031;-63
2022/04/05 01:31:50;;;;;;;1.85;0.70;;;;;;;14.12;81.17;100552.69;7391347;19;20011;-64
2022/04/05 01:34:20;;;;;;;0.93;0.20;;;;;;;14.07;80.73;100552.41;7386767;19;20029;-63
2022/04/05 01:36:55;;;;;;;1.23;0.20;;;;;;;14.08;80.87;100550.56;7386201;19;20459;-64
2022/04/05 01:39:28;;;;;;;0.85;0.30;;;;;;;14.05;80.98;100545.66;7386458;19;20145;-64
2022/04/05 01:42:00;;;;;;;2.35;0.70;;;;;;;14.04;80.52;100554.59;7388444;19;20021;-63
2022/04/05 01:44:29;;;;;;;0.95;0.30;;;;;;;14.03;80.87;100555.59;7385153;19;20508;-66
2022/04/05 01:47:07;;;;;;;1.85;0.88;;;;;;;14.01;80.65;100550.50;7388346;19;20015;-64
2022/04/05 01:49:34;;;;;;;0.50;0.20;;;;;;;13.99;80.70;100549.84;7384078;19;20021;-64
2022/04/05 01:52:01;;;;;;;0.40;0.20;;;;;;;14.00;80.55;100554.16;7383523;19;20150;-64
2022/04/05 01:54:29;;;;;;;0.30;0.20;;;;;;;13.99;80.72;100557.78;7382633;19;20147;-64
2022/04/05 01:56:56;;;;;;;0.28;0.10;;;;;;;14.00;80.01;100558.63;7386375;19;20019;-63
2022/04/05 01:59:29;;;;;;;0.88;0.17;;;;;;;13.98;80.26;100558.78;7387648;19;20010;-63
2022/04/05 02:01:56;;;;;;;;;;;;;;;13.98;80.35;100550.84;7386862;19;20031;-63
2022/04/05 02:04:23;;;;;;;0.30;0.10;;;;;;;13.98;80.80;100555.31;7389080;19;19918;-64
2022/04/05 02:06:50;;;;;;;0.95;0.17;;;;;;;13.97;80.54;100556.31;7388084;19;20031;-64
2022/04/05 02:09:17;;;;;;;0.47;0.10;;;;;;;13.95;80.07;100561.81;7386007;19;20011;-63
2022/04/05 02:11:48;;;;;;;1.25;0.10;;;;;;;13.93;80.22;100558.50;7386011;19;20014;-65
2022/04/05 02:14:16;;;;;;;0.20;0.10;;;;;;;13.91;80.08;100560.53;7385383;19;20019;-65
2022/04/05 02:16:43;;;;;;;1.05;0.30;;;;;;;13.92;80.48;100556.03;7385504;19;20014;-63
2022/04/05 02:19:11;;;;;;;0.75;0.20;;;;;;;13.91;80.34;100555.25;7386214;19;20013;-64
2022/04/05 02:21:38;;;;;;;0.35;0.10;;;;;;;13.91;80.13;100560.53;7386982;19;20003;-65
2022/04/05 02:24:05;;;;;;;1.50;0.10;;;;;;;13.92;79.60;100554.22;7388793;19;20480;-65
2022/04/05 02:26:32;;;;;;;0.50;0.10;;;;;;;13.92;79.65;100559.50;7384772;19;20034;-64
2022/04/05 02:28:58;;;;;;;4.82;1.88;;;;;;;13.88;79.49;100555.59;7384043;19;20879;-63
2022/04/05 02:31:25;;;;;;;0.77;0.20;;;;;;;13.87;79.98;100553.94;7385313;19;20007;-64
2022/04/05 02:33:52;;;;;;;0.55;0.20;;;;;;;13.87;80.39;100556.59;7385582;19;20037;-65
2022/04/05 02:36:19;;;;;;;0.50;0.20;;;;;;;13.85;79.87;100555.13;7385650;19;20039;-64
2022/04/05 02:38:46;;;;;;;0.55;0.10;;;;;;;13.87;79.92;100553.13;7385223;19;20025;-64
2022/04/05 02:41:13;;;;;;;2.22;0.20;;;;;;;13.85;79.93;100552.50;7384067;19;20017;-63
2022/04/05 02:43:40;;;;;;;0.30;0.10;;;;;;;13.83;79.83;100557.13;7385156;19;20010;-63
2022/04/05 02:46:08;;;;;;;1.75;0.20;;;;;;;13.82;79.98;100548.38;7384173;19;20041;-63
2022/04/05 02:48:35;;;;;;;0.30;0.10;;;;;;;13.80;80.03;100547.75;7387704;19;20492;-65
2022/04/05 02:51:02;;;;;;;0.68;0.20;;;;;;;13.80;79.81;100552.22;7385321;19;20011;-64
2022/04/05 02:53:29;;;;;;;1.20;0.40;;;;;;;13.79;80.15;100546.09;7386252;19;20007;-63
2022/04/05 02:55:56;;;;;;;0.60;0.20;;;;;;;13.76;80.31;100543.84;7383853;19;20133;-63
2022/04/05 02:58:23;;;;;;;1.80;0.70;;;;;;;13.74;80.44;100545.81;7385861;19;20011;-64
2022/04/05 03:00:50;;;;;;;0.90;0.28;;;;;;;13.75;80.63;100536.88;7383761;19;20017;-64
2022/04/05 03:03:17;;;;;;;0.45;0.17;;;;;;;13.77;80.82;100534.88;7381173;19;20015;-63
2022/04/05 03:05:44;;;;;;;1.00;0.50;;;;;;;13.79;82.14;100527.59;7382135;19;20025;-63
2022/04/05 03:08:11;;;;;;;0.70;0.30;;;;;;;13.79;81.20;100519.66;7383645;19;20011;-63
2022/04/05 03:10:38;;;;;;;0.47;0.20;;;;;;;13.79;80.46;100526.75;7388453;19;20018;-63
2022/04/05 03:13:05;;;;;;;0.82;0.30;;;;;;;13.77;81.30;100520.81;7381964;19;20047;-64
2022/04/05 03:15:32;;;;;;;0.68;0.20;;;;;;;13.75;81.27;100518.38;7383404;19;20499;-64
2022/04/05 03:17:59;;;;;;;1.38;0.20;;;;;;;13.75;81.98;100523.66;7386499;19;20031;-65
2022/04/05 03:20:26;;;;;;;0.57;0.20;;;;;;;13.73;81.50;100530.13;7385625;19;20010;-65
2022/04/05 03:22:55;;;;;;;2.13;0.22;;;;;;;13.73;81.17;100532.78;7381033;19;20016;-64
2022/04/05 03:25:22;;;;;;;1.70;0.40;;;;;;;13.73;81.38;100530.13;7384963;19;20022;-64
2022/04/05 03:27:49;;;;;;;1.25;0.40;;;;;;;13.71;81.13;100522.41;7390672;19;20083;-64
2022/04/05 03:30:18;;;;;;;1.23;0.40;;;;;;;13.69;81.40;100529.69;7390357;19;20022;-63
2022/04/05 03:32:45;;;;;;;1.42;0.20;;;;;;;13.70;81.54;100523.38;7388656;19;20726;-64
2022/04/05 03:35:12;;;;;;;1.15;0.40;;;;;;;13.66;81.24;100514.97;7390807;19;20071;-64
2022/04/05 03:37:39;;;;;;;1.27;0.20;;;;;;;13.69;81.84;100527.03;7394587;19;20010;-64
2022/04/05 03:40:08;;;;;;;10.52;4.47;;;;;;;13.68;82.14;100522.75;7389533;19;20066;-64
2022/04/05 03:42:35;;;;;;;0.80;0.40;;;;;;;13.66;82.10;100528.19;7389473;19;20332;-63
2022/04/05 03:45:02;;;;;;;1.30;0.30;;;;;;;13.66;81.98;100524.75;7391437;19;20513;-65
2022/04/05 03:47:30;;;;;;;5.22;1.95;;;;;;;13.67;82.43;100521.91;7390352;19;20710;-64
2022/04/05 03:49:57;;;;;;;3.30;0.50;;;;;;;13.67;82.03;100523.72;7390705;19;20025;-64
2022/04/05 03:52:24;;;;;;;0.77;0.32;;;;;;;13.64;81.67;100522.28;7390588;19;20019;-64
2022/04/05 03:54:51;;;;;;;1.67;0.50;;;;;;;13.63;81.74;100518.00;7389730;19;20007;-64
2022/04/05 03:57:18;;;;;;;1.40;0.50;;;;;;;13.61;82.41;100516.53;7391557;19;20549;-64
2022/04/05 03:59:45;;;;;;;1.65;0.50;;;;;;;13.63;82.32;100519.81;7389278;19;20010;-64
2022/04/05 04:02:12;;;;;;;1.90;0.50;;;;;;;13.63;82.56;100519.81;7392777;19;20013;-65
2022/04/05 04:04:41;;;;;;;4.28;2.13;;;;;;;13.60;82.30;100513.06;7390207;19;20014;-63
2022/04/05 04:07:15;;;;;;;2.97;0.60;;;;;;;13.60;82.72;100515.72;7387697;19;20031;-64
2022/04/05 04:09:42;;;;;;;0.90;0.50;;;;;;;13.59;82.13;100518.53;7388811;19;20014;-65
2022/04/05 04:12:09;;;;;;;1.15;0.40;;;;;;;13.58;82.28;100516.88;7389103;19;20139;-64
2022/04/05 04:14:36;;;;;;;1.20;0.35;;;;;;;13.56;82.42;100517.06;7385828;19;20025;-65
2022/04/05 04:17:03;;;;;;;0.73;0.40;;;;;;;13.57;82.33;100516.06;7389227;19;20340;-65
2022/04/05 04:19:31;;;;;;;1.05;0.40;;;;;;;13.58;82.44;100519.53;7390281;19;20025;-64
2022/04/05 04:21:57;;;;;;;1.23;0.60;;;;;;;13.58;82.39;100519.53;7386455;19;20011;-64
2022/04/05 04:24:24;;;;;;;2.65;0.60;;;;;;;13.58;82.88;100522.19;7388910;19;20475;-64
2022/04/05 04:26:51;;;;;;;3.10;0.50;;;;;;;13.57;82.27;100516.06;7389771;19;20019;-64
2022/04/05 04:29:19;;;;;;;5.60;2.28;;;;;;;13.56;82.70;100508.34;7388363;19;20025;-65
2022/04/05 04:31:46;;;;;;;4.90;0.70;;;;;;;13.56;83.09;100509.13;7388579;19;20011;-64
2022/04/05 04:34:13;;;;;;;2.30;0.50;;;;;;;13.57;82.58;100507.31;7386751;19;20014;-65
2022/04/05 04:36:40;;;;;;;1.75;0.52;;;;;;;13.60;82.18;100509.59;7388475;19;20018;-63
2022/04/05 04:39:08;;;;;;;2.80;0.50;;;;;;;13.60;82.06;100512.25;7386148;19;20034;-64
2022/04/05 04:41:34;;;;;;;1.65;0.52;;;;;;;13.58;82.18;100511.59;7390722;19;20013;-64
2022/04/05 04:44:01;;;;;;;8.48;4.53;;;;;;;13.57;82.29;100504.66;7387507;19;20012;-64
2022/04/05 04:46:28;;;;;;;3.45;0.80;;;;;;;13.57;82.34;100508.13;7391057;19;20018;-65
2022/04/05 04:48:55;;;;;;;2.60;0.57;;;;;;;13.56;82.30;100510.97;7385828;19;20432;-64
2022/04/05 04:51:22;;;;;;;2.17;0.70;;;;;;;13.54;82.22;100503.22;7389770;19;20010;-65
2022/04/05 04:53:49;;;;;;;1.63;0.70;;;;;;;13.53;81.98;100503.38;7390184;19;20018;-64
2022/04/05 04:56:15;;;;;;;1.15;0.50;;;;;;;13.51;82.18;100500.91;7386489;19;20035;-64
2022/04/05 04:58:42;;;;;;;0.70;0.40;;;;;;;13.50;82.00;100509.88;7388204;19;20022;-64
2022/04/05 05:01:09;;;;;;;1.52;0.60;;;;;;;13.52;82.14;100509.66;7385830;19;20006;-65
2022/04/05 05:03:36;;;;;;;2.42;0.60;;;;;;;13.52;82.36;100507.84;7387295;19;20030;-63
2022/04/05 05:06:04;;;;;;;2.03;0.65;;;;;;;13.53;82.31;100506.03;7386921;19;20007;-63
2022/04/05 05:08:32;;;;;;;2.33;0.68;;;;;;;13.54;82.86;100513.78;7389743;19;20014;-63
2022/04/05 05:10:59;;;;;;;2.45;0.70;;;;;;;13.55;82.51;100514.63;7386373;19;20162;-64
2022/04/05 05:13:26;;;;;;;2.15;0.70;;;;;;;13.55;82.54;100514.63;7386407;19;20343;-63
2022/04/05 05:15:53;;;;;;;4.07;1.10;;;;;;;13.57;82.10;100518.72;7386560;19;20011;-64
2022/04/05 05:18:20;;;;;;;4.20;0.85;;;;;;;13.60;82.38;100517.53;7389209;19;20010;-65
2022/04/05 05:20:46;;;;;;;3.42;0.90;;;;;;;13.58;82.09;100514.25;7386690;19;20081;-65
2022/04/05 05:23:13;;;;;;;3.42;1.10;;;;;;;13.57;82.35;100517.88;7388922;19;20025;-64
2022/04/05 05:25:40;;;;;;;2.42;0.80;;;;;;;13.60;82.51;100506.97;7386526;19;20099;-66
2022/04/05 05:28:07;;;;;;;2.38;0.82;;;;;;;13.61;82.04;100514.69;7387215;19;20158;-64
2022/04/05 05:30:34;;;;;;;3.50;0.93;;;;;;;13.61;82.16;100519.19;7386967;19;20014;-63
2022/04/05 05:33:01;;;;;;;6.38;0.90;;;;;;;13.62;82.18;100513.69;7386102;19;20011;-64
2022/04/05 05:35:29;;;;;;;4.22;2.33;;;;;;;13.62;82.69;100515.53;7384654;19;20014;-64
2022/04/05 05:37:56;;;;;;;4.38;0.93;;;;;;;13.62;82.19;100518.16;7383494;19;20018;-63
2022/04/05 05:40:23;;;;;;;2.53;0.80;;;;;;;13.60;81.71;100518.38;7386171;19;20074;-64
2022/04/05 05:42:58;;;;;;;3.97;1.20;;;;;;;13.61;81.78;100513.91;7385306;19;20025;-66
2022/04/05 05:45:26;;;;;;;1.77;0.90;;;;;;;13.61;82.41;100514.69;7386030;19;20015;-63
2022/04/05 05:47:53;;;;;;;4.25;1.95;;;;;;;13.65;82.43;100523.13;7384032;19;20133;-64
2022/04/05 05:50:21;;;;;;;2.67;1.00;;;;;;;13.64;82.12;100519.63;7386659;19;20021;-66
2022/04/05 05:52:48;;;;;;;4.32;1.00;;;;;;;13.64;82.06;100517.00;7383893;19;20018;-64
2022/04/05 05:55:17;;;;;;;5.85;1.35;;;;;;;13.64;82.11;100516.19;7385678;19;20389;-63
2022/04/05 05:57:44;;;;;;;3.50;1.73;;;;;;;13.66;82.40;100525.56;7386761;19;20087;-66
2022/04/05 06:00:17;;;;;;;4.53;1.90;;;;;;;13.69;82.08;100524.38;7384145;19;20378;-65
2022/04/05 06:02:45;;;;;;;3.70;1.45;;;;;;;13.70;82.13;100521.56;7389751;19;20133;-64
2022/04/05 06:05:13;;;;;;;5.72;1.85;;;;;;;13.69;82.25;100522.56;7383966;19;20010;-63
2022/04/05 06:07:41;;;;;;;6.22;1.50;;;;;;;13.72;81.75;100534.59;7387483;19;20082;-64
2022/04/05 06:10:10;;;;;;;4.57;1.25;;;;;;;13.71;81.39;100531.13;7384957;19;20039;-65
2022/04/05 06:12:39;;;;;;;2.65;0.90;;;;;;;13.72;81.79;100531.94;7388048;19;20551;-66
2022/04/05 06:15:09;;;;;;;4.55;1.13;;;;;;;13.74;81.33;100534.41;7384697;19;20385;-64
2022/04/05 06:17:40;;;;;;;7.38;2.38;;;;;;;13.73;80.49;100530.94;7386026;19;20018;-65
2022/04/05 06:20:08;;;;;;;7.50;1.58;;;;;;;13.73;80.80;100538.88;7388774;19;20127;-63
2022/04/05 06:22:53;;;;;;;3.90;1.30;;;;;;;13.71;80.34;100535.63;7381608;19;20070;-64
2022/04/05 06:25:22;;;;;;;3.95;1.25;;;;;;;13.67;80.31;100535.13;7386949;19;20023;-64
2022/04/05 06:27:49;;;;;;;7.47;2.03;;;;;;;13.68;80.58;100538.59;7384587;19;20037;-64
2022/04/05 06:30:17;;;;;;;8.13;1.73;;;;;;;13.70;80.31;100536.59;7384807;19;20026;-65
2022/04/05 06:32:45;;;;;;;5.78;2.47;;;;;;;13.70;80.90;100542.72;7383086;19;20446;-65
2022/04/05 06:35:12;;;;;;;5.70;1.42;;;;;;;13.71;80.36;100538.25;7384162;19;20015;-63
2022/04/05 06:37:44;;;;;;;5.15;1.60;;;;;;;13.67;80.73;100544.88;7388829;19;20047;-63
2022/04/05 06:40:13;;;;;;;4.47;1.70;;;;;;;13.65;80.47;100545.09;7382233;19;20006;-64
2022/04/05 06:42:43;;;;;;;5.57;1.83;;;;;;;13.64;80.97;100540.78;7385995;19;20456;-64
2022/04/05 06:45:17;;;;;;;7.90;1.52;;;;;;;13.65;80.74;100546.91;7387271;19;20485;-64
2022/04/05 06:47:45;;;;;;;7.57;1.60;;;;;;;13.67;81.53;100547.53;7384232;19;20094;-63
2022/04/05 06:50:14;;;;;;;4.43;1.70;;;;;;;13.71;81.82;100554.13;7385101;19;20070;-63
2022/04/05 06:52:41;;;;;;;14.15;2.03;;;;;;;13.75;82.53;100550.13;7382815;19;20082;-64
2022/04/05 06:55:10;;;;;;;8.30;2.20;;;;;;;13.83;83.58;100551.84;7382533;19;20425;-63
2022/04/05 06:57:37;;;;;;;8.35;2.20;;;;;;;13.91;83.25;100549.97;7381380;19;20014;-64
2022/04/05 07:00:06;;;;;;;5.72;2.35;;;;;;;13.95;82.30;100550.41;7390805;19;20090;-63
2022/04/05 07:02:34;;;;;;;6.50;2.20;;;;;;;14.00;81.71;100542.75;7394896;19;20014;-63
2022/04/05 07:05:01;;;;;;;5.35;2.08;;;;;;;14.00;80.75;100559.44;7395556;19;20010;-64
2022/04/05 07:07:28;;;;;;;8.10;2.47;;;;;;;13.97;80.15;100546.56;7393869;19;20475;-64
2022/04/05 07:09:55;;;;;;;5.75;2.80;;;;;;;13.94;80.60;100546.94;7391853;19;20047;-63
2022/04/05 07:12:25;;;;;;;4.72;1.83;;;;;;;13.94;80.38;100549.59;7391444;19;20018;-64
2022/04/05 07:14:52;;;;;;;8.70;1.90;;;;;;;13.95;80.74;100545.13;7389224;19;20079;-64
2022/04/05 07:17:19;;;;;;;4.97;2.30;;;;;;;13.97;81.13;100554.50;7389213;19;20021;-65
2022/04/05 07:19:46;;;;;;;5.60;2.08;;;;;;;13.91;80.95;100546.50;7394577;19;20049;-64
2022/04/05 07:22:13;;;;;;;2.58;1.52;;;;;;;13.90;80.87;100552.78;7390881;19;20475;-65
2022/04/05 07:24:43;;;;;;;5.20;2.95;;;;;;;13.90;81.26;100540.38;7393673;19;20081;-64
2022/04/05 07:27:15;;;;;;;5.82;1.85;;;;;;;13.88;80.67;100549.47;7391081;19;20015;-64
2022/04/05 07:29:42;;;;;;;5.57;2.40;;;;;;;13.84;80.98;100549.03;7390286;19;20634;-65
2022/04/05 07:32:09;;;;;;;5.65;1.80;;;;;;;13.90;81.62;100544.84;7390606;19;20017;-64
2022/04/05 07:34:36;;;;;;;8.80;2.83;;;;;;;13.91;81.36;100552.59;7390007;19;20438;-64
2022/04/05 07:37:05;;;;;;;7.72;3.25;;;;;;;13.93;81.71;100541.81;7389718;19;20075;-63
2022/04/05 07:39:34;;;;;;;5.70;2.10;;;;;;;13.90;81.14;100537.72;7390621;19;20074;-64
2022/04/05 07:42:01;;;;;;;5.72;2.90;;;;;;;13.92;81.38;100540.16;7388814;19;20025;-63
2022/04/05 07:44:28;;;;;;;8.82;2.45;;;;;;;13.93;81.29;100545.28;7389078;19;20823;-67
2022/04/05 07:46:55;;;;;;;6.70;2.88;;;;;;;13.92;80.88;100537.53;7390098;19;20025;-65
2022/04/05 07:49:21;;;;;;;6.90;3.25;;;;;;;13.90;80.75;100529.78;7390410;19;20029;-65
2022/04/05 07:51:48;;;;;;;5.88;2.22;;;;;;;13.87;80.31;100527.50;7393654;19;20011;-64
2022/04/05 07:54:15;;;;;;;7.93;4.82;;;;;;;13.89;80.33;100530.78;7392889;19;20011;-64
2022/04/05 07:56:42;;;;;;;7.43;2.40;;;;;;;13.87;80.94;100519.56;7391187;19;20021;-65
2022/04/05 07:59:09;;;;;;;7.85;2.15;;;;;;;13.88;81.08;100526.50;7387718;19;20332;-64
2022/04/05 08:01:36;;;;;;;5.20;1.90;;;;;;;13.91;80.75;100522.69;7390998;19;20353;-65
2022/04/05 08:04:03;;;;;;;6.50;1.67;;;;;;;13.99;82.91;100527.88;7390416;19;20086;-65
2022/04/05 08:06:31;;;;;;;5.05;1.70;;;;;;;14.01;82.33;100518.75;7386934;19;20465;-66
2022/04/05 08:08:59;;;;;;;5.50;2.20;;;;;;;14.01;80.83;100520.59;7388089;19;20176;-63
2022/04/05 08:11:27;;;;;;;6.07;1.55;;;;;;;14.05;79.58;100519.22;7386936;19;20014;-63
2022/04/05 08:13:55;;;;;;;3.47;1.40;;;;;;;14.06;78.77;100529.63;7388353;19;20010;-65
2022/04/05 08:16:28;;;;;;;3.17;1.33;;;;;;;14.09;78.18;100529.25;7387061;19;20022;-64
2022/04/05 08:18:55;;;;;;;7.65;1.92;;;;;;;14.12;79.41;100535.97;7387848;19;20018;-65
2022/04/05 08:21:23;;;;;;;7.22;3.78;;;;;;;14.14;79.09;100540.09;7387749;19;20044;-64
2022/04/05 08:23:52;;;;;;;6.15;1.10;;;;;;;14.16;78.14;100531.97;7387371;19;20025;-68
2022/04/05 08:26:19;;;;;;;6.22;1.40;;;;;;;14.19;77.82;100534.25;7387914;19;20014;-64
2022/04/05 08:28:57;;;;;;;3.88;2.10;;;;;;;14.20;77.59;100529.78;7386576;19;20021;-64
2022/04/05 08:31:24;;;;;;;5.00;1.52;;;;;;;14.20;78.21;100527.13;7387238;19;20026;-64
2022/04/05 08:33:53;;;;;;;5.63;1.40;;;;;;;14.19;78.34;100528.13;7392513;19;20007;-64
2022/04/05 08:36:20;;;;;;;2.17;0.95;;;;;;;14.20;78.04;100532.44;7388228;19;20091;-64
2022/04/05 08:38:47;;;;;;;4.15;0.90;;;;;;;14.21;77.39;100532.25;7389005;19;20021;-64
2022/04/05 08:41:19;;;;;;;6.30;0.95;;;;;;;14.23;76.23;100530.22;7388218;19;20086;-65
2022/04/05 08:43:48;;;;;;;2.97;0.90;;;;;;;14.21;75.78;100534.06;7390010;19;20052;-66
2022/04/05 08:46:18;;;;;;;5.15;0.90;;;;;;;14.22;76.56;100531.22;7391864;19;20044;-64
2022/04/05 08:48:47;;;;;;;2.00;0.55;;;;;;;14.24;75.64;100525.75;7389265;19;20033;-65
2022/04/05 08:51:15;;;;;;;10.55;2.90;;;;;;;14.27;75.89;100533.34;7388286;19;20010;-64
2022/04/05 08:53:42;;;;;;;10.50;4.57;;;;;;;14.27;75.29;100539.47;7387565;19;20021;-64
2022/04/05 08:56:09;;;;;;;3.75;0.77;;;;;;;14.29;74.71;100526.03;7387786;19;20017;-64
2022/04/05 08:58:36;;;;;;;2.00;0.45;;;;;;;14.32;74.08;100533.63;7386503;19;20015;-66
2022/04/05 09:01:03;;;;;;;2.35;0.40;;;;;;;14.30;73.17;100528.50;7389628;19;20019;-64
2022/04/05 09:03:32;;;;;;;4.55;0.60;;;;;;;14.32;72.72;100528.31;7386193;19;20015;-64
2022/04/05 09:06:23;;;;;;;2.85;0.43;;;;;;;14.27;71.87;100528.88;7387711;19;20035;-63
2022/04/05 09:08:50;;;;;;;4.10;0.40;;;;;;;14.23;71.97;100534.69;7388259;19;20018;-63
2022/04/05 09:11:20;;;;;;;7.10;0.40;;;;;;;14.27;71.87;100528.88;7389162;19;20014;-65
2022/04/05 09:14:01;;;;;;;3.35;0.40;;;;;;;14.31;71.50;100531.97;7390223;19;20020;-64
2022/04/05 09:16:32;;;;;;;3.28;1.40;;;;;;;14.40;71.73;100534.34;7384744;19;20411;-64
2022/04/05 09:19:08;;;;;;;2.05;0.40;;;;;;;14.47;71.16;100542.38;7390459;19;20439;-64
2022/04/05 09:22:09;;;;;;;3.50;0.40;;;;;;;14.63;70.82;100538.72;7364068;19;20010;-63
2022/04/05 09:24:45;;;;;;;3.88;1.67;;;;;;;14.75;71.31;100531.91;7375528;19;20033;-65
2022/04/05 09:27:21;;;;;;;2.97;0.50;;;;;;;14.81;69.44;100537.28;7386946;19;20010;-66
2022/04/05 09:29:50;;;;;;;4.32;0.90;;;;;;;14.88;70.06;100532.06;7377420;19;20031;-65
2022/04/05 09:32:43;;;;;;;6.13;0.90;;;;;;;14.97;71.08;100537.06;7387985;19;20017;-65
2022/04/05 09:35:11;;;;;;;3.45;0.60;;;;;;;15.00;69.80;100535.84;7384103;19;20465;-65
2022/04/05 09:37:39;;;;;;;5.28;0.90;;;;;;;15.01;70.17;100532.19;7382307;19;20014;-65
2022/04/05 09:40:23;;;;;;;6.28;0.85;;;;;;;14.98;69.81;100536.00;7383156;19;20320;-63
2022/04/05 09:43:07;;;;;;;10.80;3.28;;;;;;;14.95;70.97;100530.28;7383052;19;20035;-64
2022/04/05 09:46:01;;;;;;;6.85;2.13;;;;;;;15.06;71.35;100543.03;7385205;19;20010;-66
2022/04/05 09:48:36;;;;;;;6.55;1.25;;;;;;;15.10;70.71;100540.81;7382428;19;20006;-63
2022/04/05 09:51:12;;;;;;;3.53;0.55;;;;;;;15.10;69.87;100538.16;7383228;19;20013;-65
2022/04/05 09:53:39;;;;;;;4.63;0.45;;;;;;;15.15;69.98;100535.78;7385381;19;20196;-64
2022/04/05 09:56:09;;;;;;;3.10;0.93;;;;;;;15.20;69.92;100547.44;7384620;19;20027;-66
2022/04/05 09:58:52;;;;;;;4.38;0.50;;;;;;;15.16;68.20;100532.94;7384855;19;20015;-64
2022/04/05 10:01:24;;;;;;;2.95;0.50;;;;;;;15.22;68.29;100528.72;7385635;19;20013;-65
2022/04/05 10:04:13;;;;;;;3.70;0.50;;;;;;;15.28;68.51;100531.44;7383767;19;20732;-65
2022/04/05 10:06:46;;;;;;;3.42;0.52;;;;;;;15.30;67.22;100533.88;7384644;19;20018;-63
2022/04/05 10:09:15;;;;;;;4.75;0.68;;;;;;;15.32;68.40;100519.44;7382283;19;20014;-64
2022/04/05 10:11:44;;;;;;;8.27;2.47;;;;;;;15.40;67.98;100532.53;7386240;19;20555;-64
2022/04/05 10:14:13;;;;;;;4.38;0.50;;;;;;;15.44;66.61;100532.97;7383891;19;20346;-64
2022/04/05 10:16:50;;;;;;;5.60;0.60;;;;;;;15.44;66.51;100522.34;7385549;19;20585;-65
2022/04/05 10:19:20;;;;;;;3.13;0.80;;;;;;;15.47;65.34;100532.59;7382522;19;20658;-63
2022/04/05 10:21:48;;;;;;;4.70;0.65;;;;;;;15.42;65.14;100524.41;7383336;19;20221;-64
2022/04/05 10:24:16;;;;;;;5.63;0.80;;;;;;;15.41;65.49;100528.06;7386593;19;20464;-66
2022/04/05 10:26:48;;;;;;;4.10;0.70;;;;;;;15.43;65.62;100527.88;7382114;19;20014;-65
2022/04/05 10:29:17;;;;;;;3.03;0.47;;;;;;;15.43;65.96;100533.19;7380837;19;20075;-63
2022/04/05 10:31:48;;;;;;;4.18;0.60;;;;;;;15.40;65.77;100523.75;7383680;19;20111;-65
2022/04/05 10:34:28;;;;;;;27.20;9.32;;;;;;;15.39;65.60;100522.13;7385558;19;20010;-65
2022/04/05 10:37:18;;;;;;;3.88;0.70;;;;;;;15.35;65.57;100523.50;7380508;19;20010;-65
2022/04/05 10:40:00;;;;;;;1.92;0.50;;;;;;;15.28;65.93;100518.19;7380782;19;20139;-64
2022/04/05 10:42:38;;;;;;;7.22;0.70;;;;;;;15.21;66.07;100511.16;7384054;19;20138;-65
2022/04/05 10:45:10;;;;;;;4.60;0.85;;;;;;;15.19;66.45;100518.47;7382785;19;20523;-64
2022/04/05 10:47:59;;;;;;;6.60;0.90;;;;;;;15.26;66.61;100517.53;7380413;19;20023;-66
2022/04/05 10:51:07;;;;;;;7.35;1.10;;;;;;;15.30;66.53;100508.19;7383473;19;20214;-65
2022/04/05 10:53:41;;;;;;;8.23;0.93;;;;;;;15.40;65.83;100505.19;7384449;19;20452;-66
2022/04/05 10:56:10;;;;;;;4.03;0.55;;;;;;;15.44;64.89;100495.06;7383843;19;20018;-65
2022/04/05 10:58:38;;;;;;;7.10;0.80;;;;;;;15.51;64.74;100498.56;7385187;19;20330;-64
2022/04/05 11:01:18;;;;;;;12.73;1.00;;;;;;;15.52;64.31;100502.88;7385573;19;20007;-65
2022/04/05 11:04:16;;;;;;;8.15;0.50;;;;;;;15.50;63.94;100500.38;7387713;19;20044;-64
2022/04/05 11:07:01;;;;;;;6.03;0.50;;;;;;;15.46;63.97;100507.09;7368548;19;20102;-64
2022/04/05 11:09:32;;;;;;;7.93;0.60;;;;;;;15.41;64.02;100512.97;7379796;19;20451;-65
2022/04/05 11:12:05;;;;;;;10.13;0.75;;;;;;;15.41;64.77;100491.75;7384553;19;20268;-66
2022/04/05 11:14:35;;;;;;;3.65;0.60;;;;;;;15.42;64.61;100500.53;7383461;19;20023;-65
2022/04/05 11:17:07;;;;;;;4.05;0.60;;;;;;;15.46;64.58;100498.31;7379758;19;20011;-65
2022/04/05 11:19:36;;;;;;;5.67;0.70;;;;;;;15.43;64.75;100486.28;7380218;19;20021;-66
2022/04/05 11:22:04;;;;;;;6.57;0.70;;;;;;;15.47;66.46;100486.69;7385981;19;20015;-65
2022/04/05 11:24:51;;;;;;;9.38;0.85;;;;;;;15.55;65.76;100497.19;7381230;19;20086;-65
2022/04/05 11:27:31;;;;;;;7.53;0.75;;;;;;;15.59;65.56;100499.28;7382135;19;20036;-65
2022/04/05 11:30:23;;;;;;;7.47;0.55;;;;;;;15.60;63.72;100500.06;7382381;19;20007;-65
2022/04/05 11:33:12;;;;;;;5.53;0.60;;;;;;;15.51;63.08;100486.16;7379909;19;20018;-64
2022/04/05 11:35:47;;;;;;;7.05;0.80;;;;;;;15.43;63.73;100486.28;7381921;19;20025;-62
2022/04/05 11:38:20;;;;;;;10.50;0.70;;;;;;;15.43;64.64;100488.09;7384729;19;20018;-67